sensor_id;sensor_type;location;lat;lon;timestamp;pressure;altitude;pressure_sealevel;temperature;humidity
71666;BME280;59503;53.486;10.196;2023-06-14T00:00:37;101864.19;;;14.24;91.10
71666;BME280;59503;53.486;10.196;2023-06-14T00:03:06;101864.66;;;14.26;91.26
71666;BME280;59503;53.486;10.196;2023-06-14T00:05:38;101875.59;;;14.26;91.61
71666;BME280;59503;53.486;10.196;2023-06-14T00:08:08;101870.38;;;14.21;92.50
71666;BME280;59503;53.486;10.196;2023-06-14T00:10:35;101872.06;;;14.10;92.85
71666;BME280;59503;53.486;10.196;2023-06-14T00:13:02;101879.78;;;14.04;93.47
71666;BME280;59503;53.486;10.196;2023-06-14T00:15:28;101877.31;;;13.99;94.24
71666;BME280;59503;53.486;10.196;2023-06-14T00:17:53;101878.44;;;13.98;93.81
71666;BME280;59503;53.486;10.196;2023-06-14T00:20:20;101884.28;;;13.97;94.31
71666;BME280;59503;53.486;10.196;2023-06-14T00:22:46;101886.38;;;14.03;93.93
71666;BME280;59503;53.486;10.196;2023-06-14T00:25:11;101885.16;;;14.01;94.24
71666;BME280;59503;53.486;10.196;2023-06-14T00:27:37;101890.53;;;14.13;93.56
71666;BME280;59503;53.486;10.196;2023-06-14T00:30:02;101890.34;;;14.06;94.23
71666;BME280;59503;53.486;10.196;2023-06-14T00:32:27;101889.66;;;13.93;94.83
71666;BME280;59503;53.486;10.196;2023-06-14T00:34:53;101888.09;;;13.92;95.83
71666;BME280;59503;53.486;10.196;2023-06-14T00:37:18;101889.50;;;13.86;96.19
71666;BME280;59503;53.486;10.196;2023-06-14T00:39:44;101887.09;;;14.00;95.54
71666;BME280;59503;53.486;10.196;2023-06-14T00:42:09;101889.66;;;13.93;95.86
71666;BME280;59503;53.486;10.196;2023-06-14T00:44:35;101890.91;;;13.96;95.32
71666;BME280;59503;53.486;10.196;2023-06-14T00:47:00;101896.41;;;13.80;96.80
71666;BME280;59503;53.486;10.196;2023-06-14T00:49:28;101902.66;;;13.81;97.70
71666;BME280;59503;53.486;10.196;2023-06-14T00:51:54;101900.13;;;13.72;97.72
71666;BME280;59503;53.486;10.196;2023-06-14T00:54:20;101889.72;;;13.62;98.50
71666;BME280;59503;53.486;10.196;2023-06-14T00:56:45;101898.78;;;13.66;98.58
71666;BME280;59503;53.486;10.196;2023-06-14T00:59:11;101902.59;;;13.61;99.15
71666;BME280;59503;53.486;10.196;2023-06-14T01:01:36;101906.03;;;13.58;99.06
71666;BME280;59503;53.486;10.196;2023-06-14T01:04:04;101905.66;;;13.44;100.00
71666;BME280;59503;53.486;10.196;2023-06-14T01:06:45;101902.50;;;13.42;100.00
71666;BME280;59503;53.486;10.196;2023-06-14T01:09:32;101910.28;;;13.40;100.00
71666;BME280;59503;53.486;10.196;2023-06-14T01:12:15;101912.28;;;13.43;100.00
71666;BME280;59503;53.486;10.196;2023-06-14T01:14:42;101898.97;;;13.26;100.00
71666;BME280;59503;53.486;10.196;2023-06-14T01:17:08;101910.16;;;13.21;100.00
71666;BME280;59503;53.486;10.196;2023-06-14T01:19:41;101898.19;;;13.10;100.00
71666;BME280;59503;53.486;10.196;2023-06-14T01:22:08;101909.72;;;13.19;100.00
71666;BME280;59503;53.486;10.196;2023-06-14T01:24:34;101910.94;;;13.06;100.00
71666;BME280;59503;53.486;10.196;2023-06-14T01:27:00;101916.66;;;13.01;100.00
71666;BME280;59503;53.486;10.196;2023-06-14T01:29:28;101913.09;;;13.01;100.00
71666;BME280;59503;53.486;10.196;2023-06-14T01:31:58;101911.84;;;12.98;100.00
71666;BME280;59503;53.486;10.196;2023-06-14T01:34:24;101910.09;;;12.90;100.00
71666;BME280;59503;53.486;10.196;2023-06-14T01:36:49;101900.09;;;12.82;100.00
71666;BME280;59503;53.486;10.196;2023-06-14T01:39:17;101908.09;;;12.75;100.00
71666;BME280;59503;53.486;10.196;2023-06-14T01:41:43;101914.69;;;12.74;100.00
71666;BME280;59503;53.486;10.196;2023-06-14T01:44:10;101912.97;;;12.82;100.00
71666;BME280;59503;53.486;10.196;2023-06-14T01:46:38;101918.75;;;12.80;100.00
71666;BME280;59503;53.486;10.196;2023-06-14T01:49:03;101916.72;;;12.77;100.00
71666;BME280;59503;53.486;10.196;2023-06-14T01:51:29;101913.53;;;12.75;100.00
71666;BME280;59503;53.486;10.196;2023-06-14T01:53:54;101918.13;;;12.71;100.00
71666;BME280;59503;53.486;10.196;2023-06-14T01:56:20;101914.13;;;12.69;100.00
71666;BME280;59503;53.486;10.196;2023-06-14T01:58:46;101914.69;;;12.74;100.00
71666;BME280;59503;53.486;10.196;2023-06-14T02:01:13;101915.75;;;12.70;100.00
71666;BME280;59503;53.486;10.196;2023-06-14T02:03:41;101917.56;;;12.66;100.00
71666;BME280;59503;53.486;10.196;2023-06-14T02:06:07;101916.97;;;12.72;100.00
71666;BME280;59503;53.486;10.196;2023-06-14T02:08:33;101915.41;;;12.71;100.00
71666;BME280;59503;53.486;10.196;2023-06-14T02:10:58;101914.13;;;12.69;100.00
71666;BME280;59503;53.486;10.196;2023-06-14T02:13:23;101915.19;;;12.64;100.00
71666;BME280;59503;53.486;10.196;2023-06-14T02:15:49;101915.88;;;12.61;100.00
71666;BME280;59503;53.486;10.196;2023-06-14T02:18:20;101919.34;;;12.74;100.00
71666;BME280;59503;53.486;10.196;2023-06-14T02:20:45;101918.38;;;12.66;100.00
71666;BME280;59503;53.486;10.196;2023-06-14T02:23:10;101913.06;;;12.58;100.00
71666;BME280;59503;53.486;10.196;2023-06-14T02:25:36;101918.06;;;12.56;100.00
71666;BME280;59503;53.486;10.196;2023-06-14T02:28:01;101920.56;;;12.48;100.00
71666;BME280;59503;53.486;10.196;2023-06-14T02:30:27;101918.91;;;12.44;100.00
71666;BME280;59503;53.486;10.196;2023-06-14T02:32:52;101923.91;;;12.42;100.00
71666;BME280;59503;53.486;10.196;2023-06-14T02:35:18;101926.38;;;12.47;100.00
71666;BME280;59503;53.486;10.196;2023-06-14T02:37:45;101934.31;;;12.52;100.00
71666;BME280;59503;53.486;10.196;2023-06-14T02:40:11;101926.25;;;12.56;100.00
71666;BME280;59503;53.486;10.196;2023-06-14T02:42:37;101920.47;;;12.45;100.00
71666;BME280;59503;53.486;10.196;2023-06-14T02:45:02;101925.91;;;12.45;100.00
71666;BME280;59503;53.486;10.196;2023-06-14T02:47:29;101937.41;;;12.50;100.00
71666;BME280;59503;53.486;10.196;2023-06-14T02:49:55;101931.84;;;12.35;100.00
71666;BME280;59503;53.486;10.196;2023-06-14T02:52:20;101933.22;;;12.41;100.00
71666;BME280;59503;53.486;10.196;2023-06-14T02:54:47;101935.97;;;12.29;100.00
71666;BME280;59503;53.486;10.196;2023-06-14T02:57:12;101929.94;;;12.23;100.00
71666;BME280;59503;53.486;10.196;2023-06-14T02:59:38;101942.13;;;12.26;100.00
71666;BME280;59503;53.486;10.196;2023-06-14T03:02:03;101941.66;;;12.24;100.00
71666;BME280;59503;53.486;10.196;2023-06-14T03:04:29;101942.00;;;12.22;100.00
71666;BME280;59503;53.486;10.196;2023-06-14T03:06:54;101945.97;;;12.25;100.00
71666;BME280;59503;53.486;10.196;2023-06-14T03:09:21;101936.44;;;12.19;100.00
71666;BME280;59503;53.486;10.196;2023-06-14T03:11:47;101932.56;;;12.20;100.00
71666;BME280;59503;53.486;10.196;2023-06-14T03:14:12;101944.28;;;12.20;100.00
71666;BME280;59503;53.486;10.196;2023-06-14T03:16:38;101943.13;;;12.21;100.00
71666;BME280;59503;53.486;10.196;2023-06-14T03:19:04;101948.50;;;12.18;100.00
71666;BME280;59503;53.486;10.196;2023-06-14T03:21:29;101947.00;;;12.20;100.00
71666;BME280;59503;53.486;10.196;2023-06-14T03:23:55;101957.09;;;12.32;100.00
71666;BME280;59503;53.486;10.196;2023-06-14T03:26:21;101956.41;;;12.35;100.00
71666;BME280;59503;53.486;10.196;2023-06-14T03:28:47;101960.97;;;12.31;100.00
71666;BME280;59503;53.486;10.196;2023-06-14T03:31:16;101949.94;;;12.27;100.00
71666;BME280;59503;53.486;10.196;2023-06-14T03:33:41;101951.75;;;12.23;100.00
71666;BME280;59503;53.486;10.196;2023-06-14T03:36:07;101955.28;;;12.24;100.00
71666;BME280;59503;53.486;10.196;2023-06-14T03:38:32;101965.28;;;12.32;100.00
71666;BME280;59503;53.486;10.196;2023-06-14T03:40:58;101976.16;;;12.44;100.00
71666;BME280;59503;53.486;10.196;2023-06-14T03:43:24;101980.47;;;12.45;100.00
71666;BME280;59503;53.486;10.196;2023-06-14T03:45:50;101967.03;;;12.52;100.00
71666;BME280;59503;53.486;10.196;2023-06-14T03:48:15;101978.88;;;12.56;100.00
71666;BME280;59503;53.486;10.196;2023-06-14T03:50:41;101984.56;;;12.51;100.00
71666;BME280;59503;53.486;10.196;2023-06-14T03:53:08;101981.38;;;12.49;100.00
71666;BME280;59503;53.486;10.196;2023-06-14T03:55:34;101983.75;;;12.63;100.00
71666;BME280;59503;53.486;10.196;2023-06-14T03:58:00;101981.25;;;12.58;100.00
71666;BME280;59503;53.486;10.196;2023-06-14T04:00:25;101996.13;;;12.60;100.00
71666;BME280;59503;53.486;10.196;2023-06-14T04:02:52;101994.31;;;12.64;100.00
71666;BME280;59503;53.486;10.196;2023-06-14T04:05:18;101997.94;;;12.68;100.00
71666;BME280;59503;53.486;10.196;2023-06-14T04:07:45;101999.50;;;12.69;100.00
71666;BME280;59503;53.486;10.196;2023-06-14T04:10:11;102001.09;;;12.70;100.00
71666;BME280;59503;53.486;10.196;2023-06-14T04:12:37;101997.69;;;12.73;100.00
71666;BME280;59503;53.486;10.196;2023-06-14T04:15:03;102007.22;;;12.79;100.00
71666;BME280;59503;53.486;10.196;2023-06-14T04:17:31;102021.78;;;12.83;100.00
71666;BME280;59503;53.486;10.196;2023-06-14T04:19:58;102011.84;;;12.91;100.00
71666;BME280;59503;53.486;10.196;2023-06-14T04:22:27;102022.50;;;12.96;100.00
71666;BME280;59503;53.486;10.196;2023-06-14T04:24:56;102020.81;;;13.03;100.00
71666;BME280;59503;53.486;10.196;2023-06-14T04:27:22;102012.03;;;13.10;100.00
71666;BME280;59503;53.486;10.196;2023-06-14T04:29:53;102009.63;;;13.20;100.00
71666;BME280;59503;53.486;10.196;2023-06-14T04:32:28;102012.75;;;13.22;100.00
71666;BME280;59503;53.486;10.196;2023-06-14T04:34:59;102010.22;;;13.29;100.00
71666;BME280;59503;53.486;10.196;2023-06-14T04:37:27;102003.66;;;13.30;100.00
71666;BME280;59503;53.486;10.196;2023-06-14T04:39:55;102018.03;;;13.43;100.00
71666;BME280;59503;53.486;10.196;2023-06-14T04:42:21;102019.63;;;13.59;100.00
71666;BME280;59503;53.486;10.196;2023-06-14T04:44:50;102016.03;;;13.55;100.00
71666;BME280;59503;53.486;10.196;2023-06-14T04:47:16;102019.75;;;13.79;100.00
71666;BME280;59503;53.486;10.196;2023-06-14T04:49:42;102017.28;;;13.73;100.00
71666;BME280;59503;53.486;10.196;2023-06-14T04:52:07;102027.50;;;13.77;100.00
71666;BME280;59503;53.486;10.196;2023-06-14T04:54:35;102019.22;;;13.89;100.00
71666;BME280;59503;53.486;10.196;2023-06-14T04:57:04;102016.75;;;13.84;100.00
71666;BME280;59503;53.486;10.196;2023-06-14T04:59:31;102022.56;;;13.98;100.00
71666;BME280;59503;53.486;10.196;2023-06-14T05:01:58;102035.00;;;14.11;100.00
71666;BME280;59503;53.486;10.196;2023-06-14T05:04:25;102019.53;;;14.18;100.00
71666;BME280;59503;53.486;10.196;2023-06-14T05:06:52;102026.50;;;14.47;100.00
71666;BME280;59503;53.486;10.196;2023-06-14T05:09:19;102020.19;;;14.62;100.00
71666;BME280;59503;53.486;10.196;2023-06-14T05:11:45;102026.78;;;14.76;100.00
71666;BME280;59503;53.486;10.196;2023-06-14T05:14:11;102020.09;;;14.93;100.00
71666;BME280;59503;53.486;10.196;2023-06-14T05:16:37;102029.50;;;14.95;100.00
71666;BME280;59503;53.486;10.196;2023-06-14T05:19:04;102036.69;;;15.00;100.00
71666;BME280;59503;53.486;10.196;2023-06-14T05:21:30;102026.72;;;15.11;100.00
71666;BME280;59503;53.486;10.196;2023-06-14T05:23:57;102031.69;;;15.25;100.00
71666;BME280;59503;53.486;10.196;2023-06-14T05:26:22;102036.09;;;15.71;97.02
71666;BME280;59503;53.486;10.196;2023-06-14T05:28:50;102024.94;;;15.83;95.44
71666;BME280;59503;53.486;10.196;2023-06-14T05:31:17;102026.25;;;15.89;92.97
71666;BME280;59503;53.486;10.196;2023-06-14T05:33:43;102035.31;;;16.15;90.97
71666;BME280;59503;53.486;10.196;2023-06-14T05:36:08;102036.53;;;16.44;89.40
71666;BME280;59503;53.486;10.196;2023-06-14T05:38:34;102040.63;;;16.54;87.63
71666;BME280;59503;53.486;10.196;2023-06-14T05:40:59;102036.09;;;16.68;85.70
71666;BME280;59503;53.486;10.196;2023-06-14T05:43:25;102042.28;;;16.88;84.38
71666;BME280;59503;53.486;10.196;2023-06-14T05:45:50;102050.41;;;16.81;83.46
71666;BME280;59503;53.486;10.196;2023-06-14T05:48:16;102050.41;;;16.81;84.12
71666;BME280;59503;53.486;10.196;2023-06-14T05:50:41;102049.75;;;16.91;84.37
71666;BME280;59503;53.486;10.196;2023-06-14T05:53:06;102056.16;;;17.31;80.65
71666;BME280;59503;53.486;10.196;2023-06-14T05:55:32;102065.81;;;17.48;79.88
71666;BME280;59503;53.486;10.196;2023-06-14T05:57:57;102063.63;;;17.68;78.02
71666;BME280;59503;53.486;10.196;2023-06-14T06:00:23;102071.88;;;18.04;75.90
71666;BME280;59503;53.486;10.196;2023-06-14T06:02:48;102069.56;;;18.13;74.31
71666;BME280;59503;53.486;10.196;2023-06-14T06:05:14;102067.22;;;18.12;73.98
71666;BME280;59503;53.486;10.196;2023-06-14T06:07:40;102059.53;;;18.35;73.00
71666;BME280;59503;53.486;10.196;2023-06-14T06:10:07;102063.22;;;18.56;72.19
71666;BME280;59503;53.486;10.196;2023-06-14T06:12:33;102070.94;;;18.91;69.90
71666;BME280;59503;53.486;10.196;2023-06-14T06:14:59;102068.66;;;19.14;67.95
71666;BME280;59503;53.486;10.196;2023-06-14T06:17:27;102061.66;;;19.31;66.60
71666;BME280;59503;53.486;10.196;2023-06-14T06:19:52;102066.50;;;19.62;66.71
71666;BME280;59503;53.486;10.196;2023-06-14T06:22:18;102072.78;;;19.66;63.88
71666;BME280;59503;53.486;10.196;2023-06-14T06:24:43;102072.06;;;19.87;65.03
71666;BME280;59503;53.486;10.196;2023-06-14T06:27:08;102068.94;;;20.09;60.62
71666;BME280;59503;53.486;10.196;2023-06-14T06:29:35;102067.72;;;20.10;59.66
71666;BME280;59503;53.486;10.196;2023-06-14T06:32:01;102068.13;;;20.40;58.83
71666;BME280;59503;53.486;10.196;2023-06-14T06:34:27;102069.25;;;20.81;57.46
71666;BME280;59503;53.486;10.196;2023-06-14T06:36:52;102071.19;;;20.91;56.30
71666;BME280;59503;53.486;10.196;2023-06-14T06:39:18;102071.94;;;21.10;55.67
71666;BME280;59503;53.486;10.196;2023-06-14T06:41:43;102074.31;;;21.08;55.64
71666;BME280;59503;53.486;10.196;2023-06-14T06:44:09;102077.75;;;21.36;52.92
71666;BME280;59503;53.486;10.196;2023-06-14T06:46:36;102077.94;;;21.77;52.06
71666;BME280;59503;53.486;10.196;2023-06-14T06:49:05;102077.69;;;22.12;51.65
71666;BME280;59503;53.486;10.196;2023-06-14T06:51:31;102085.94;;;22.19;49.91
71666;BME280;59503;53.486;10.196;2023-06-14T06:53:56;102080.66;;;22.35;50.19
71666;BME280;59503;53.486;10.196;2023-06-14T06:56:22;102093.81;;;22.68;48.33
71666;BME280;59503;53.486;10.196;2023-06-14T06:58:49;102088.84;;;22.49;47.50
71666;BME280;59503;53.486;10.196;2023-06-14T07:01:15;102096.75;;;22.03;48.50
71666;BME280;59503;53.486;10.196;2023-06-14T07:03:41;102089.63;;;22.02;47.79
71666;BME280;59503;53.486;10.196;2023-06-14T07:06:06;102091.25;;;21.96;48.12
71666;BME280;59503;53.486;10.196;2023-06-14T07:08:32;102080.81;;;22.17;46.56
71666;BME280;59503;53.486;10.196;2023-06-14T07:10:57;102097.56;;;22.00;47.03
71666;BME280;59503;53.486;10.196;2023-06-14T07:13:22;102096.09;;;21.81;48.27
71666;BME280;59503;53.486;10.196;2023-06-14T07:15:48;102089.31;;;22.41;47.61
71666;BME280;59503;53.486;10.196;2023-06-14T07:18:13;102098.88;;;22.77;46.01
71666;BME280;59503;53.486;10.196;2023-06-14T07:20:39;102093.53;;;22.96;45.08
71666;BME280;59503;53.486;10.196;2023-06-14T07:23:05;102096.50;;;23.12;45.42
71666;BME280;59503;53.486;10.196;2023-06-14T07:25:31;102093.28;;;23.14;45.25
71666;BME280;59503;53.486;10.196;2023-06-14T07:27:56;102090.16;;;23.12;45.23
71666;BME280;59503;53.486;10.196;2023-06-14T07:30:22;102088.63;;;23.07;45.80
71666;BME280;59503;53.486;10.196;2023-06-14T07:32:54;102086.38;;;22.95;44.99
71666;BME280;59503;53.486;10.196;2023-06-14T07:35:19;102088.53;;;23.14;44.88
71666;BME280;59503;53.486;10.196;2023-06-14T07:37:45;102088.28;;;23.02;44.89
71666;BME280;59503;53.486;10.196;2023-06-14T07:40:12;102084.41;;;22.96;45.38
71666;BME280;59503;53.486;10.196;2023-06-14T07:42:38;102084.22;;;23.13;44.72
71666;BME280;59503;53.486;10.196;2023-06-14T07:45:04;102085.22;;;23.30;44.53
71666;BME280;59503;53.486;10.196;2023-06-14T07:47:30;102087.41;;;23.42;45.70
71666;BME280;59503;53.486;10.196;2023-06-14T07:49:55;102086.25;;;23.70;44.17
71666;BME280;59503;53.486;10.196;2023-06-14T07:52:21;102081.31;;;23.81;43.52
71666;BME280;59503;53.486;10.196;2023-06-14T07:54:47;102091.06;;;24.19;43.20
71666;BME280;59503;53.486;10.196;2023-06-14T07:57:12;102087.91;;;24.17;43.39
71666;BME280;59503;53.486;10.196;2023-06-14T07:59:38;102085.50;;;24.19;42.62
71666;BME280;59503;53.486;10.196;2023-06-14T08:02:03;102081.06;;;23.98;42.71
71666;BME280;59503;53.486;10.196;2023-06-14T08:04:29;102093.00;;;24.22;41.88
71666;BME280;59503;53.486;10.196;2023-06-14T08:06:55;102091.91;;;24.16;42.06
71666;BME280;59503;53.486;10.196;2023-06-14T08:09:20;102085.91;;;24.40;41.76
71666;BME280;59503;53.486;10.196;2023-06-14T08:11:45;102084.59;;;24.25;42.27
71666;BME280;59503;53.486;10.196;2023-06-14T08:14:11;102085.00;;;24.01;43.84
71666;BME280;59503;53.486;10.196;2023-06-14T08:16:36;102094.38;;;23.84;42.03
71666;BME280;59503;53.486;10.196;2023-06-14T08:19:02;102088.66;;;24.21;41.35
71666;BME280;59503;53.486;10.196;2023-06-14T08:21:28;102086.84;;;24.34;41.29
71666;BME280;59503;53.486;10.196;2023-06-14T08:23:54;102087.06;;;24.20;41.76
71666;BME280;59503;53.486;10.196;2023-06-14T08:26:20;102077.63;;;24.37;41.73
71666;BME280;59503;53.486;10.196;2023-06-14T08:28:46;102084.53;;;24.29;41.61
71666;BME280;59503;53.486;10.196;2023-06-14T08:31:11;102081.28;;;24.11;41.92
71666;BME280;59503;53.486;10.196;2023-06-14T08:33:38;102083.09;;;24.21;42.13
71666;BME280;59503;53.486;10.196;2023-06-14T08:36:04;102088.47;;;24.54;41.12
71666;BME280;59503;53.486;10.196;2023-06-14T08:38:30;102076.94;;;24.95;40.23
71666;BME280;59503;53.486;10.196;2023-06-14T08:40:57;102084.81;;;25.20;39.07
71666;BME280;59503;53.486;10.196;2023-06-14T08:43:23;102077.59;;;25.22;38.77
71666;BME280;59503;53.486;10.196;2023-06-14T08:45:52;102077.34;;;25.52;38.12
71666;BME280;59503;53.486;10.196;2023-06-14T08:48:19;102072.13;;;25.38;38.82
71666;BME280;59503;53.486;10.196;2023-06-14T08:50:46;102069.78;;;25.37;38.51
71666;BME280;59503;53.486;10.196;2023-06-14T08:53:14;102072.53;;;24.98;39.80
71666;BME280;59503;53.486;10.196;2023-06-14T08:55:41;102080.88;;;25.17;39.31
71666;BME280;59503;53.486;10.196;2023-06-14T08:58:08;102080.44;;;25.19;38.77
71666;BME280;59503;53.486;10.196;2023-06-14T09:00:34;102076.38;;;25.43;39.24
71666;BME280;59503;53.486;10.196;2023-06-14T09:03:02;102080.19;;;25.85;37.59
71666;BME280;59503;53.486;10.196;2023-06-14T09:05:28;102092.72;;;25.77;38.01
71666;BME280;59503;53.486;10.196;2023-06-14T09:07:54;102072.09;;;26.38;38.21
71666;BME280;59503;53.486;10.196;2023-06-14T09:10:20;102077.34;;;26.81;35.57
71666;BME280;59503;53.486;10.196;2023-06-14T09:12:46;102073.31;;;26.82;36.04
71666;BME280;59503;53.486;10.196;2023-06-14T09:15:12;102081.56;;;27.14;34.35
71666;BME280;59503;53.486;10.196;2023-06-14T09:17:39;102083.16;;;26.86;34.39
71666;BME280;59503;53.486;10.196;2023-06-14T09:20:06;102072.16;;;26.67;35.45
71666;BME280;59503;53.486;10.196;2023-06-14T09:22:35;102072.84;;;26.55;35.96
71666;BME280;59503;53.486;10.196;2023-06-14T09:25:01;102074.41;;;26.27;36.40
71666;BME280;59503;53.486;10.196;2023-06-14T09:27:27;102077.81;;;26.63;35.36
71666;BME280;59503;53.486;10.196;2023-06-14T09:29:53;102076.16;;;26.50;35.89
71666;BME280;59503;53.486;10.196;2023-06-14T09:32:19;102075.03;;;26.92;35.27
71666;BME280;59503;53.486;10.196;2023-06-14T09:34:45;102073.03;;;26.48;35.53
71666;BME280;59503;53.486;10.196;2023-06-14T09:37:11;102067.81;;;26.50;35.88
71666;BME280;59503;53.486;10.196;2023-06-14T09:39:51;102073.38;;;26.50;35.51
71666;BME280;59503;53.486;10.196;2023-06-14T09:42:18;102075.81;;;26.48;36.01
71666;BME280;59503;53.486;10.196;2023-06-14T09:45:09;102067.94;;;26.75;34.45
71666;BME280;59503;53.486;10.196;2023-06-14T09:47:36;102061.81;;;27.21;34.36
71666;BME280;59503;53.486;10.196;2023-06-14T09:50:01;102067.03;;;27.73;33.62
71666;BME280;59503;53.486;10.196;2023-06-14T09:52:27;102064.22;;;27.35;33.65
71666;BME280;59503;53.486;10.196;2023-06-14T09:54:54;102059.53;;;27.04;35.09
71666;BME280;59503;53.486;10.196;2023-06-14T09:57:22;102064.25;;;27.07;34.73
71666;BME280;59503;53.486;10.196;2023-06-14T09:59:49;102060.34;;;26.75;35.08
71666;BME280;59503;53.486;10.196;2023-06-14T10:02:18;102067.72;;;27.11;35.05
71666;BME280;59503;53.486;10.196;2023-06-14T10:04:51;102058.09;;;27.53;33.92
71666;BME280;59503;53.486;10.196;2023-06-14T10:07:19;102065.31;;;28.13;32.94
71666;BME280;59503;53.486;10.196;2023-06-14T10:09:47;102061.16;;;28.18;32.82
71666;BME280;59503;53.486;10.196;2023-06-14T10:12:17;102070.38;;;27.80;32.91
71666;BME280;59503;53.486;10.196;2023-06-14T10:14:49;102063.34;;;27.38;34.05
71666;BME280;59503;53.486;10.196;2023-06-14T10:17:24;102058.06;;;27.40;33.57
71666;BME280;59503;53.486;10.196;2023-06-14T10:19:58;102062.91;;;27.65;32.03
71666;BME280;59503;53.486;10.196;2023-06-14T10:25:13;102056.59;;;28.11;31.66
71666;BME280;59503;53.486;10.196;2023-06-14T10:27:51;102053.50;;;28.56;31.05
71666;BME280;59503;53.486;10.196;2023-06-14T10:30:16;102054.81;;;28.17;31.44
71666;BME280;59503;53.486;10.196;2023-06-14T10:33:04;102055.84;;;27.85;31.72
71666;BME280;59503;53.486;10.196;2023-06-14T10:35:30;102046.94;;;27.90;31.79
71666;BME280;59503;53.486;10.196;2023-06-14T10:40:55;102045.66;;;28.51;30.90
71666;BME280;59503;53.486;10.196;2023-06-14T10:43:22;102041.25;;;28.84;31.94
71666;BME280;59503;53.486;10.196;2023-06-14T10:46:19;102036.94;;;28.70;30.77
71666;BME280;59503;53.486;10.196;2023-06-14T10:48:48;102035.41;;;28.91;30.77
71666;BME280;59503;53.486;10.196;2023-06-14T10:51:20;102040.13;;;29.03;30.73
71666;BME280;59503;53.486;10.196;2023-06-14T10:53:50;102025.13;;;29.40;31.14
71666;BME280;59503;53.486;10.196;2023-06-14T10:56:29;102036.66;;;28.22;32.00
71666;BME280;59503;53.486;10.196;2023-06-14T10:58:56;102033.84;;;27.50;33.38
71666;BME280;59503;53.486;10.196;2023-06-14T11:01:41;102039.69;;;27.14;33.38
71666;BME280;59503;53.486;10.196;2023-06-14T11:04:13;102028.97;;;27.13;35.20
71666;BME280;59503;53.486;10.196;2023-06-14T11:06:49;102021.09;;;26.82;35.26
71666;BME280;59503;53.486;10.196;2023-06-14T11:11:58;102022.78;;;26.64;34.29
71666;BME280;59503;53.486;10.196;2023-06-14T11:14:24;102012.38;;;27.34;33.35
71666;BME280;59503;53.486;10.196;2023-06-14T11:16:50;102016.84;;;27.82;32.23
71666;BME280;59503;53.486;10.196;2023-06-14T11:19:16;102014.19;;;27.28;32.59
71666;BME280;59503;53.486;10.196;2023-06-14T11:21:43;102015.75;;;26.88;33.28
71666;BME280;59503;53.486;10.196;2023-06-14T11:24:12;102014.91;;;26.02;35.08
71666;BME280;59503;53.486;10.196;2023-06-14T11:26:37;102000.75;;;25.60;36.14
71666;BME280;59503;53.486;10.196;2023-06-14T11:29:03;102006.16;;;26.00;35.64
71666;BME280;59503;53.486;10.196;2023-06-14T11:31:29;102006.09;;;26.48;33.71
71666;BME280;59503;53.486;10.196;2023-06-14T11:33:56;102005.69;;;26.78;33.03
71666;BME280;59503;53.486;10.196;2023-06-14T11:36:23;101996.44;;;26.65;33.31
71666;BME280;59503;53.486;10.196;2023-06-14T11:39:06;101986.09;;;26.37;34.39
71666;BME280;59503;53.486;10.196;2023-06-14T11:41:37;102000.09;;;25.89;35.32
71666;BME280;59503;53.486;10.196;2023-06-14T11:44:04;101995.19;;;25.60;36.04
71666;BME280;59503;53.486;10.196;2023-06-14T11:46:29;101998.97;;;25.34;36.24
71666;BME280;59503;53.486;10.196;2023-06-14T11:48:55;101994.84;;;25.74;36.25
71666;BME280;59503;53.486;10.196;2023-06-14T11:51:20;101994.72;;;26.71;34.19
71666;BME280;59503;53.486;10.196;2023-06-14T11:53:46;101993.66;;;26.36;35.38
71666;BME280;59503;53.486;10.196;2023-06-14T11:56:12;101995.69;;;26.36;34.47
71666;BME280;59503;53.486;10.196;2023-06-14T11:58:38;101989.78;;;26.18;34.21
71666;BME280;59503;53.486;10.196;2023-06-14T12:01:03;101988.06;;;25.92;35.15
71666;BME280;59503;53.486;10.196;2023-06-14T12:03:29;101981.78;;;25.88;35.35
71666;BME280;59503;53.486;10.196;2023-06-14T12:06:05;101978.81;;;26.27;34.87
71666;BME280;59503;53.486;10.196;2023-06-14T12:08:37;101976.47;;;27.20;32.84
71666;BME280;59503;53.486;10.196;2023-06-14T12:13:59;101966.19;;;27.67;32.05
71666;BME280;59503;53.486;10.196;2023-06-14T12:16:31;101976.16;;;28.15;31.03
71666;BME280;59503;53.486;10.196;2023-06-14T12:19:00;101974.03;;;28.19;30.53
71666;BME280;59503;53.486;10.196;2023-06-14T12:21:26;101966.16;;;28.61;29.76
71666;BME280;59503;53.486;10.196;2023-06-14T12:23:53;101956.69;;;29.19;29.11
71666;BME280;59503;53.486;10.196;2023-06-14T12:26:19;101963.97;;;29.66;29.26
71666;BME280;59503;53.486;10.196;2023-06-14T12:28:46;101970.44;;;29.75;29.97
71666;BME280;59503;53.486;10.196;2023-06-14T12:31:14;101966.78;;;29.17;30.81
71666;BME280;59503;53.486;10.196;2023-06-14T12:33:40;101968.88;;;28.52;31.32
71666;BME280;59503;53.486;10.196;2023-06-14T12:36:08;101973.28;;;27.34;32.50
71666;BME280;59503;53.486;10.196;2023-06-14T12:38:34;101969.63;;;26.55;33.52
71666;BME280;59503;53.486;10.196;2023-06-14T12:41:00;101965.78;;;27.31;32.36
71666;BME280;59503;53.486;10.196;2023-06-14T12:43:26;101970.66;;;27.77;31.29
71666;BME280;59503;53.486;10.196;2023-06-14T12:45:51;101955.31;;;28.29;30.96